Time;durP1;ratioP1;P1;durP2;ratioP2;P2;SDS_P1;SDS_P2;PMS_P1;PMS_P2;Temp;Humidity;BMP_temperature;BMP_pressure;BME280_temperature;BME280_humidity;BME280_pressure;Samples;Min_cycle;Max_cycle;Signal;HPM_P1;HPM_P2
2023/03/25 00:00:14;;;;;;;16.40;2.55;;;9.70;99.90;;;;;;4935503;29;20115;-89
2023/03/25 00:02:40;;;;;;;18.50;3.35;;;9.60;99.90;;;;;;4934403;29;20055;-88
2023/03/25 00:05:07;;;;;;;18.58;3.03;;;9.70;99.90;;;;;;4943443;28;20256;-88
2023/03/25 00:07:32;;;;;;;16.60;2.60;;;9.70;99.90;;;;;;4956472;28;20457;-89
2023/03/25 00:09:58;;;;;;;19.27;3.65;;;9.70;99.90;;;;;;4956196;28;20580;-88
2023/03/25 00:12:25;;;;;;;20.42;3.45;;;9.60;99.90;;;;;;4957125;28;20080;-89
2023/03/25 00:14:57;;;;;;;21.48;3.13;;;9.70;99.90;;;;;;4956253;28;20043;-88
2023/03/25 00:17:27;;;;;;;23.45;3.33;;;9.70;99.90;;;;;;4972057;28;20062;-88
2023/03/25 00:19:55;;;;;;;22.45;3.33;;;9.70;99.90;;;;;;4955833;28;20085;-89
2023/03/25 00:22:21;;;;;;;19.40;2.80;;;9.70;99.90;;;;;;4956466;28;20799;-88
2023/03/25 00:24:48;;;;;;;19.35;3.03;;;9.70;99.90;;;;;;4956138;28;20157;-88
2023/03/25 00:27:16;;;;;;;18.17;3.15;;;9.70;99.90;;;;;;4957094;28;20084;-89
2023/03/25 00:29:43;;;;;;;20.40;3.20;;;9.60;99.90;;;;;;4956489;28;20047;-88
2023/03/25 00:32:10;;;;;;;21.20;2.92;;;9.60;99.90;;;;;;4955667;28;20065;-89
2023/03/25 00:34:46;;;;;;;18.00;4.05;;;9.60;99.90;;;;;;4956382;28;20137;-88
2023/03/25 00:37:20;;;;;;;18.55;3.15;;;9.50;99.90;;;;;;4956167;28;20072;-89
2023/03/25 00:39:46;;;;;;;17.00;3.35;;;9.40;99.90;;;;;;4956109;28;20046;-89
2023/03/25 00:42:15;;;;;;;20.70;3.15;;;9.40;99.90;;;;;;4956217;28;20053;-88
2023/03/25 00:44:41;;;;;;;21.50;2.85;;;9.30;99.90;;;;;;4956324;28;20101;-88
2023/03/25 00:47:07;;;;;;;21.35;2.83;;;9.30;99.90;;;;;;4956227;28;20049;-89
2023/03/25 00:49:33;;;;;;;16.92;3.22;;;9.30;99.90;;;;;;4956448;28;20043;-88
2023/03/25 00:51:59;;;;;;;21.60;3.22;;;9.30;99.90;;;;;;4955008;28;20140;-89
2023/03/25 00:54:24;;;;;;;20.65;3.40;;;9.20;99.90;;;;;;4956255;28;20042;-89
2023/03/25 00:56:52;;;;;;;22.88;3.33;;;9.30;99.90;;;;;;4956427;28;20477;-89
2023/03/25 00:59:18;;;;;;;21.25;3.03;;;9.30;99.90;;;;;;4955522;28;20069;-90
2023/03/25 01:01:44;;;;;;;24.90;2.97;;;9.20;99.90;;;;;;4956370;28;20093;-89
2023/03/25 01:04:11;;;;;;;17.25;3.20;;;9.20;99.90;;;;;;4956110;28;20058;-88
2023/03/25 01:06:42;;;;;;;26.40;4.63;;;9.20;99.90;;;;;;4954084;28;20046;-89
2023/03/25 01:09:13;;;;;;;23.25;3.42;;;9.20;99.90;;;;;;4956498;28;20498;-88
2023/03/25 01:11:39;;;;;;;19.67;3.00;;;9.10;99.90;;;;;;4956299;28;20050;-88
2023/03/25 01:14:08;;;;;;;19.92;3.25;;;9.10;99.90;;;;;;4971880;28;20038;-88
2023/03/25 01:16:34;;;;;;;24.23;3.42;;;9.00;99.90;;;;;;4956293;28;20114;-90
2023/03/25 01:19:00;;;;;;;30.50;4.07;;;9.00;99.90;;;;;;4959688;28;20082;-91
2023/03/25 01:21:26;;;;;;;31.25;4.80;;;9.00;99.90;;;;;;4960348;28;20081;-91
2023/03/25 01:23:51;;;;;;;25.98;3.55;;;8.90;99.90;;;;;;4960487;28;20502;-92
2023/03/25 01:26:26;;;;;;;30.95;4.28;;;8.90;99.90;;;;;;4977482;28;20195;-92
2023/03/25 01:29:03;;;;;;;24.27;4.07;;;8.90;99.90;;;;;;4960009;28;20053;-91
2023/03/25 01:31:29;;;;;;;29.13;3.88;;;8.80;99.90;;;;;;4961193;28;20195;-91
2023/03/25 01:34:06;;;;;;;25.77;3.95;;;8.80;99.90;;;;;;4961075;28;20125;-92
2023/03/25 01:36:32;;;;;;;27.83;4.07;;;8.80;99.90;;;;;;4960106;28;20061;-92
2023/03/25 01:39:00;;;;;;;25.45;4.15;;;8.70;99.90;;;;;;4961090;28;20089;-91
2023/03/25 01:41:28;;;;;;;24.35;3.40;;;8.70;99.90;;;;;;4976897;28;20050;-91
2023/03/25 01:44:03;;;;;;;22.55;3.50;;;8.70;99.90;;;;;;4960695;28;20042;-93
2023/03/25 01:46:29;;;;;;;28.10;4.10;;;8.70;99.90;;;;;;4962674;28;20088;-92
2023/03/25 01:49:07;;;;;;;23.55;3.65;;;8.70;99.90;;;;;;4960667;28;20398;-90
2023/03/25 01:51:42;;;;;;;35.38;4.60;;;8.60;99.90;;;;;;4959419;28;20112;-92
2023/03/25 01:54:08;;;;;;;26.13;4.47;;;8.60;99.90;;;;;;4960668;28;20490;-92
2023/03/25 01:56:39;;;;;;;29.48;4.80;;;8.60;99.90;;;;;;4959781;28;20053;-93
2023/03/25 01:59:08;;;;;;;29.80;3.85;;;8.70;99.90;;;;;;4960644;28;20038;-93
2023/03/25 02:01:35;;;;;;;26.70;3.97;;;8.50;99.90;;;;;;4960032;28;20474;-91
2023/03/25 02:04:08;;;;;;;34.03;4.15;;;8.60;99.90;;;;;;4959360;28;20046;-92
2023/03/25 02:06:40;;;;;;;33.00;4.22;;;8.60;99.90;;;;;;4942653;28;20058;-91
2023/03/25 02:09:16;;;;;;;30.25;4.97;;;8.60;99.90;;;;;;4956760;28;20050;-90
2023/03/25 02:11:48;;;;;;;30.25;4.28;;;8.50;99.90;;;;;;4956085;28;20043;-90
2023/03/25 02:14:17;;;;;;;27.08;3.80;;;8.60;99.90;;;;;;4956571;28;20054;-90
2023/03/25 02:16:54;;;;;;;36.65;4.32;;;8.60;99.90;;;;;;4955241;28;20038;-89
2023/03/25 02:19:47;;;;;;;30.60;3.92;;;8.50;99.90;;;;;;4956540;28;20430;-89
2023/03/25 02:22:13;;;;;;;27.88;3.78;;;8.50;99.90;;;;;;4955559;28;20042;-89
2023/03/25 02:25:06;;;;;;;32.55;5.15;;;8.50;99.90;;;;;;4955892;28;20085;-90
2023/03/25 02:27:55;;;;;;;33.17;4.63;;;8.50;99.90;;;;;;4956388;28;20055;-91
2023/03/25 02:30:30;;;;;;;28.67;5.20;;;8.50;99.90;;;;;;4954776;28;20637;-89
2023/03/25 02:33:20;;;;;;;33.47;4.97;;;8.60;99.90;;;;;;4956058;28;20055;-89
2023/03/25 02:36:05;;;;;;;33.10;5.47;;;8.60;99.90;;;;;;4955130;28;20051;-89
2023/03/25 02:38:52;;;;;;;30.92;5.35;;;8.50;99.90;;;;;;4955394;28;20085;-89
2023/03/25 02:41:22;;;;;;;31.80;4.60;;;8.60;99.90;;;;;;4955487;28;20046;-89
2023/03/25 02:44:02;;;;;;;41.15;5.18;;;8.60;99.90;;;;;;4955575;28;20045;-90
2023/03/25 02:46:30;;;;;;;43.45;4.60;;;8.60;99.90;;;;;;4955142;28;20043;-89
2023/03/25 02:49:07;;;;;;;31.75;5.22;;;8.50;99.90;;;;;;4956014;28;20042;-89
2023/03/25 02:51:45;;;;;;;43.20;4.97;;;8.50;99.90;;;;;;4954185;28;20043;-89
2023/03/25 02:54:18;;;;;;;30.48;5.55;;;8.60;99.90;;;;;;4955619;28;20049;-89
2023/03/25 02:56:47;;;;;;;33.97;5.20;;;8.60;99.90;;;;;;4955914;28;20050;-90
2023/03/25 02:59:21;;;;;;;43.10;6.38;;;8.60;99.90;;;;;;4955159;28;20054;-89
2023/03/25 03:01:49;;;;;;;34.65;5.47;;;8.60;99.90;;;;;;4954716;28;20041;-89
2023/03/25 03:04:18;;;;;;;27.17;4.70;;;8.70;99.90;;;;;;4952069;29;20059;-89
2023/03/25 03:06:43;;;;;;;29.80;4.97;;;8.60;99.90;;;;;;4953056;28;20050;-88
2023/03/25 03:09:21;;;;;;;28.75;5.57;;;8.70;99.90;;;;;;4955505;28;20051;-88
2023/03/25 03:12:06;;;;;;;30.50;4.60;;;8.70;99.90;;;;;;4954743;28;20063;-89
2023/03/25 03:14:51;;;;;;;31.88;5.18;;;8.70;99.90;;;;;;4955681;28;20061;-89
2023/03/25 03:17:24;;;;;;;38.30;4.93;;;8.60;99.90;;;;;;4956008;28;20046;-89
2023/03/25 03:20:04;;;;;;;35.63;4.93;;;8.70;99.90;;;;;;4954932;28;20070;-90
2023/03/25 03:22:51;;;;;;;30.65;5.28;;;8.60;99.90;;;;;;4955936;28;20039;-89
2023/03/25 03:25:39;;;;;;;33.05;4.93;;;8.70;99.90;;;;;;4955101;28;20050;-89
2023/03/25 03:28:15;;;;;;;28.23;5.05;;;8.70;99.90;;;;;;4955667;28;20039;-89
2023/03/25 03:30:56;;;;;;;34.42;4.85;;;8.70;99.90;;;;;;4955011;28;20053;-88
2023/03/25 03:33:37;;;;;;;22.73;4.30;;;8.70;99.90;;;;;;4954184;28;20114;-89
2023/03/25 03:36:07;;;;;;;23.10;4.95;;;8.70;99.90;;;;;;4953945;28;20050;-90
2023/03/25 03:38:40;;;;;;;26.13;4.38;;;8.70;99.90;;;;;;4955186;28;20034;-88
2023/03/25 03:41:10;;;;;;;34.38;4.50;;;8.70;99.90;;;;;;4953427;28;20078;-90
2023/03/25 03:43:44;;;;;;;32.60;6.93;;;8.70;99.90;;;;;;4954361;28;20043;-90
2023/03/25 03:46:25;;;;;;;30.13;4.30;;;8.70;99.90;;;;;;4954892;28;20082;-89
2023/03/25 03:48:55;;;;;;;30.52;4.80;;;8.70;99.90;;;;;;4954126;28;20130;-89
2023/03/25 03:51:35;;;;;;;32.20;4.82;;;8.70;99.90;;;;;;4954164;28;20057;-90
2023/03/25 03:54:17;;;;;;;23.42;4.75;;;8.60;99.90;;;;;;4954527;28;20047;-89
2023/03/25 03:56:52;;;;;;;31.63;5.10;;;8.60;99.90;;;;;;4954272;28;20455;-89
2023/03/25 03:59:29;;;;;;;36.50;5.18;;;8.60;99.90;;;;;;4954922;28;20050;-89
2023/03/25 04:01:59;;;;;;;31.27;4.60;;;8.60;99.90;;;;;;4954068;28;20077;-90
2023/03/25 04:04:26;;;;;;;34.92;4.93;;;8.50;99.90;;;;;;4953222;28;20050;-89
2023/03/25 04:07:15;;;;;;;30.52;5.43;;;8.50;99.90;;;;;;4934946;29;20055;-89
2023/03/25 04:09:54;;;;;;;27.95;4.75;;;8.50;99.90;;;;;;4934857;29;20071;-89
2023/03/25 04:12:26;;;;;;;39.00;5.18;;;8.50;99.90;;;;;;4950762;29;20484;-89
2023/03/25 04:14:55;;;;;;;23.83;3.95;;;8.50;99.90;;;;;;4934342;28;20543;-88
2023/03/25 04:17:23;;;;;;;40.15;5.13;;;8.50;99.90;;;;;;4933617;29;20058;-88
2023/03/25 04:19:52;;;;;;;29.38;5.28;;;8.40;99.90;;;;;;4933579;29;20043;-88
2023/03/25 04:22:19;;;;;;;33.58;5.00;;;8.40;99.90;;;;;;4933480;29;20035;-87
2023/03/25 04:24:59;;;;;;;28.08;5.18;;;8.40;99.90;;;;;;4932900;29;20055;-88
2023/03/25 04:27:28;;;;;;;41.58;5.53;;;8.40;99.90;;;;;;4933610;29;20084;-89
2023/03/25 04:29:56;;;;;;;33.67;4.65;;;8.40;99.90;;;;;;4933336;29;20070;-88
2023/03/25 04:32:22;;;;;;;31.83;4.05;;;8.40;99.90;;;;;;4933740;29;20047;-88
2023/03/25 04:34:56;;;;;;;32.78;4.45;;;8.40;99.90;;;;;;4934187;29;20066;-89
2023/03/25 04:37:24;;;;;;;39.00;5.00;;;8.40;99.90;;;;;;4933724;29;20054;-89
2023/03/25 04:39:58;;;;;;;29.83;4.50;;;8.40;99.90;;;;;;4933737;29;20811;-88
2023/03/25 04:42:31;;;;;;;42.17;5.43;;;8.40;99.90;;;;;;4934162;29;20457;-88
2023/03/25 04:45:00;;;;;;;31.08;4.50;;;8.50;99.90;;;;;;4933483;29;20079;-90
2023/03/25 04:47:32;;;;;;;39.50;4.80;;;8.40;99.90;;;;;;4934535;29;20501;-90
2023/03/25 04:50:04;;;;;;;31.60;6.15;;;8.40;99.90;;;;;;4934192;29;20079;-89
2023/03/25 04:52:45;;;;;;;28.92;4.70;;;8.50;99.90;;;;;;4934106;29;20058;-89
2023/03/25 04:55:18;;;;;;;25.23;4.68;;;8.40;99.90;;;;;;4933756;29;20047;-89
2023/03/25 04:57:54;;;;;;;27.38;4.50;;;8.40;99.90;;;;;;4933237;29;20069;-89
2023/03/25 05:00:32;;;;;;;32.35;5.75;;;7.80;99.90;;;;;;4933859;29;20057;-88
2023/03/25 05:03:09;;;;;;;34.63;5.43;;;8.40;99.90;;;;;;4935390;28;20055;-89
2023/03/25 05:05:46;;;;;;;27.45;5.00;;;8.40;99.90;;;;;;4941577;28;20493;-89
2023/03/25 05:08:13;;;;;;;33.10;5.63;;;8.40;99.90;;;;;;4937419;28;20098;-88
2023/03/25 05:10:42;;;;;;;34.17;4.40;;;8.40;99.90;;;;;;4968256;28;20093;-87
2023/03/25 05:13:07;;;;;;;34.38;5.32;;;8.40;99.90;;;;;;4968707;28;20051;-89
2023/03/25 05:15:39;;;;;;;31.45;4.40;;;8.30;99.90;;;;;;4968914;28;20118;-88
2023/03/25 05:18:20;;;;;;;30.20;4.32;;;8.40;99.90;;;;;;4969092;28;20409;-89
2023/03/25 05:20:49;;;;;;;29.67;5.78;;;8.40;99.90;;;;;;4967492;28;20043;-88
2023/03/25 05:23:16;;;;;;;33.45;4.68;;;8.40;99.90;;;;;;4969184;28;20133;-88
2023/03/25 05:25:44;;;;;;;35.80;4.30;;;8.40;99.90;;;;;;4969287;28;20101;-89
2023/03/25 05:28:12;;;;;;;35.45;4.25;;;8.40;99.90;;;;;;4952844;28;20078;-88
2023/03/25 05:30:40;;;;;;;33.85;4.55;;;8.40;99.90;;;;;;4968594;28;20121;-88
2023/03/25 05:33:16;;;;;;;38.72;4.90;;;8.40;99.90;;;;;;4952100;28;20567;-89
2023/03/25 05:35:43;;;;;;;32.50;5.45;;;8.40;99.90;;;;;;4967919;28;20124;-90
2023/03/25 05:38:11;;;;;;;26.60;4.78;;;8.40;99.90;;;;;;4953355;28;20054;-87
2023/03/25 05:40:37;;;;;;;29.85;3.78;;;8.40;99.90;;;;;;4967923;28;20050;-88
2023/03/25 05:43:05;;;;;;;34.25;5.70;;;8.50;99.90;;;;;;4968770;28;20384;-88
2023/03/25 05:45:31;;;;;;;36.22;5.55;;;8.50;99.90;;;;;;4968302;28;20054;-89
2023/03/25 05:48:07;;;;;;;29.77;4.93;;;8.50;99.90;;;;;;4951877;28;20070;-87
2023/03/25 05:50:44;;;;;;;35.05;4.95;;;8.50;99.90;;;;;;4967713;28;20047;-88
2023/03/25 05:53:12;;;;;;;29.80;4.20;;;8.50;99.90;;;;;;4952601;28;20587;-88
2023/03/25 05:55:37;;;;;;;31.38;4.70;;;8.50;99.90;;;;;;4951284;28;20438;-88
2023/03/25 05:58:03;;;;;;;36.08;5.70;;;8.60;99.90;;;;;;4952627;28;20043;-88
2023/03/25 06:00:38;;;;;;;30.73;4.55;;;8.60;99.90;;;;;;4951703;28;20508;-88
2023/03/25 06:03:06;;;;;;;29.52;5.28;;;8.60;99.90;;;;;;4951892;28;20047;-88
2023/03/25 06:05:32;;;;;;;34.25;5.25;;;8.60;99.90;;;;;;4967064;28;20490;-89
2023/03/25 06:07:58;;;;;;;33.35;5.07;;;8.60;99.90;;;;;;4974656;28;20085;-86
2023/03/25 06:10:24;;;;;;;27.52;4.35;;;8.50;99.90;;;;;;4957984;28;20046;-87
2023/03/25 06:12:51;;;;;;;35.95;5.30;;;8.50;99.90;;;;;;4958945;28;20542;-87
2023/03/25 06:15:19;;;;;;;26.77;4.40;;;8.60;99.90;;;;;;4958932;28;20042;-87
2023/03/25 06:17:46;;;;;;;32.90;5.68;;;8.60;99.90;;;;;;4959443;28;20046;-88
2023/03/25 06:20:15;;;;;;;33.50;5.75;;;8.60;99.90;;;;;;4959224;28;20363;-87
2023/03/25 06:22:43;;;;;;;36.80;5.57;;;8.60;99.90;;;;;;4958459;28;20467;-88
2023/03/25 06:25:12;;;;;;;26.10;4.90;;;8.60;99.90;;;;;;4959269;28;20046;-88
2023/03/25 06:27:43;;;;;;;31.77;4.70;;;8.60;99.90;;;;;;4959046;28;20046;-89
2023/03/25 06:30:12;;;;;;;40.00;5.72;;;8.60;99.90;;;;;;4958869;28;20046;-89
2023/03/25 06:32:37;;;;;;;28.08;4.43;;;8.70;99.90;;;;;;4959366;28;20051;-89
2023/03/25 06:35:06;;;;;;;23.63;3.92;;;8.70;99.90;;;;;;4957727;28;20069;-88
2023/03/25 06:37:32;;;;;;;26.58;5.00;;;8.70;99.90;;;;;;4957784;28;20088;-89
2023/03/25 06:39:58;;;;;;;37.45;5.18;;;8.70;99.90;;;;;;4959898;28;20120;-88
2023/03/25 06:42:26;;;;;;;32.13;5.57;;;8.70;99.90;;;;;;4958985;28;20042;-89
2023/03/25 06:44:52;;;;;;;34.17;5.10;;;8.70;99.90;;;;;;4959834;28;20058;-90
2023/03/25 06:47:21;;;;;;;35.97;5.57;;;8.70;99.90;;;;;;4960190;28;20050;-90
2023/03/25 06:49:48;;;;;;;30.58;5.32;;;8.60;99.90;;;;;;4960925;28;20061;-90
2023/03/25 06:52:14;;;;;;;30.48;5.20;;;8.60;99.90;;;;;;4959590;28;20038;-90
2023/03/25 06:54:43;;;;;;;28.00;4.28;;;8.60;99.90;;;;;;4959626;28;20054;-90
2023/03/25 06:57:17;;;;;;;32.42;5.78;;;8.60;99.90;;;;;;4958446;28;20504;-89
2023/03/25 06:59:50;;;;;;;22.90;3.78;;;8.60;99.90;;;;;;4959131;28;20038;-89
2023/03/25 07:02:15;;;;;;;27.50;4.50;;;8.60;99.90;;;;;;4958231;28;20050;-88
2023/03/25 07:04:41;;;;;;;30.02;4.82;;;8.70;99.90;;;;;;4956710;28;20442;-90
2023/03/25 07:07:08;;;;;;;31.92;5.18;;;8.80;99.90;;;;;;4957005;28;20133;-89
2023/03/25 07:09:34;;;;;;;21.55;4.45;;;8.90;99.90;;;;;;4958313;28;20139;-88
2023/03/25 07:12:00;;;;;;;36.20;5.25;;;8.90;99.90;;;;;;4958331;28;20085;-89
2023/03/25 07:14:26;;;;;;;26.23;4.68;;;9.00;99.90;;;;;;4957924;28;20057;-87
2023/03/25 07:17:11;;;;;;;23.33;3.95;;;9.00;99.90;;;;;;4956970;28;20052;-87
2023/03/25 07:19:36;;;;;;;24.33;4.07;;;9.00;99.90;;;;;;4957939;28;20104;-87
2023/03/25 07:22:02;;;;;;;30.25;4.97;;;9.10;99.90;;;;;;4951515;28;20050;-87
2023/03/25 07:24:28;;;;;;;33.67;4.25;;;9.30;99.90;;;;;;4944103;28;20034;-88
2023/03/25 07:26:54;;;;;;;24.58;3.75;;;9.50;99.90;;;;;;4946782;28;20077;-87
2023/03/25 07:29:30;;;;;;;26.40;4.18;;;9.50;99.90;;;;;;4948523;28;20062;-88
2023/03/25 07:31:56;;;;;;;29.23;3.78;;;9.40;99.90;;;;;;4942091;28;20108;-88
2023/03/25 07:34:22;;;;;;;16.02;2.28;;;9.40;99.90;;;;;;4940842;28;20071;-89
2023/03/25 07:36:51;;;;;;;21.33;3.33;;;9.20;99.90;;;;;;4951702;28;20536;-88
2023/03/25 07:39:17;;;;;;;25.25;3.38;;;9.10;99.90;;;;;;4948636;28;20031;-92
2023/03/25 07:41:46;;;;;;;29.00;3.78;;;9.10;99.90;;;;;;4944291;28;20051;-89
2023/03/25 07:44:14;;;;;;;21.23;4.28;;;9.00;99.90;;;;;;4939920;28;20046;-93
2023/03/25 07:46:40;;;;;;;27.95;4.47;;;8.90;99.90;;;;;;4938366;28;20061;-88
2023/03/25 07:49:11;;;;;;;29.08;4.22;;;8.80;99.90;;;;;;4939251;28;20043;-88
2023/03/25 07:51:36;;;;;;;24.73;3.90;;;8.80;99.90;;;;;;4937493;28;20162;-90
2023/03/25 07:54:03;;;;;;;22.60;3.58;;;8.80;99.90;;;;;;4937026;28;20137;-87
2023/03/25 07:56:28;;;;;;;27.65;4.32;;;8.80;99.90;;;;;;4938469;28;20085;-87
2023/03/25 07:58:54;;;;;;;29.05;4.35;;;8.80;99.90;;;;;;4947988;28;20494;-86
2023/03/25 08:01:20;;;;;;;18.90;4.00;;;8.70;99.90;;;;;;4946495;28;20472;-86
2023/03/25 08:03:46;;;;;;;23.05;4.85;;;8.50;99.90;;;;;;4941742;28;20055;-86
2023/03/25 08:06:11;;;;;;;16.52;2.55;;;8.50;99.90;;;;;;4960684;28;20046;-86
2023/03/25 08:08:43;;;;;;;20.95;4.25;;;8.50;99.90;;;;;;4971808;28;20042;-87
2023/03/25 08:11:10;;;;;;;24.48;4.57;;;8.20;99.90;;;;;;4952968;28;20051;-88
2023/03/25 08:13:35;;;;;;;23.52;3.95;;;8.70;99.90;;;;;;4946803;28;20487;-87
2023/03/25 08:16:01;;;;;;;19.25;3.22;;;8.70;99.90;;;;;;4943957;28;20062;-88
2023/03/25 08:18:28;;;;;;;23.30;3.88;;;8.70;99.90;;;;;;4950974;28;20047;-88
2023/03/25 08:20:54;;;;;;;26.20;3.30;;;8.80;99.90;;;;;;4972171;28;20124;-88
2023/03/25 08:23:21;;;;;;;17.35;3.28;;;8.70;99.90;;;;;;4955220;28;20046;-88
2023/03/25 08:25:57;;;;;;;21.90;3.28;;;8.70;99.90;;;;;;4955692;28;20379;-88
2023/03/25 08:28:23;;;;;;;20.13;3.58;;;8.70;99.90;;;;;;4956310;28;20050;-88
2023/03/25 08:30:53;;;;;;;23.75;2.92;;;8.60;99.90;;;;;;4956289;28;20050;-88
2023/03/25 08:33:25;;;;;;;16.73;3.20;;;8.70;99.90;;;;;;4972858;28;20058;-89
2023/03/25 08:35:52;;;;;;;12.93;2.70;;;8.80;99.90;;;;;;4954803;28;20034;-87
2023/03/25 08:38:17;;;;;;;19.10;2.63;;;8.90;99.90;;;;;;4955616;28;20042;-87
2023/03/25 08:40:43;;;;;;;25.75;3.80;;;8.90;99.90;;;;;;4956711;28;20384;-87
2023/03/25 08:43:10;;;;;;;18.67;2.90;;;8.90;99.90;;;;;;4954489;28;20128;-87
2023/03/25 08:45:35;;;;;;;22.00;2.83;;;9.00;99.90;;;;;;4955207;28;20050;-87
2023/03/25 08:48:05;;;;;;;12.88;2.25;;;9.00;99.90;;;;;;4956670;28;20030;-90
2023/03/25 08:50:31;;;;;;;19.52;3.42;;;9.00;99.90;;;;;;4956244;28;20042;-85
2023/03/25 08:52:57;;;;;;;24.73;3.50;;;9.00;99.90;;;;;;4955989;28;20057;-88
2023/03/25 08:55:24;;;;;;;19.75;3.15;;;9.00;99.90;;;;;;4955987;28;20105;-88
2023/03/25 08:57:50;;;;;;;22.42;3.65;;;8.90;99.90;;;;;;4956139;28;20813;-86
2023/03/25 09:00:17;;;;;;;18.95;3.75;;;9.20;99.90;;;;;;4955777;28;20104;-86
2023/03/25 09:02:43;;;;;;;27.55;3.80;;;9.00;99.90;;;;;;4956678;28;20116;-86
2023/03/25 09:05:11;;;;;;;24.45;3.88;;;9.10;99.90;;;;;;4951051;28;20414;-87
2023/03/25 09:07:38;;;;;;;24.42;4.07;;;9.10;99.90;;;;;;4952726;28;20479;-86
2023/03/25 09:10:05;;;;;;;20.20;3.00;;;9.20;99.90;;;;;;4968333;28;20042;-86
2023/03/25 09:12:31;;;;;;;26.17;5.22;;;9.20;99.90;;;;;;4952677;28;20043;-86
2023/03/25 09:14:56;;;;;;;24.05;3.65;;;9.30;99.90;;;;;;4952626;28;20623;-86
2023/03/25 09:17:22;;;;;;;22.15;3.20;;;9.30;99.90;;;;;;4951469;28;20069;-85
2023/03/25 09:19:48;;;;;;;28.60;4.18;;;9.30;99.90;;;;;;4945056;28;20047;-85
2023/03/25 09:22:14;;;;;;;26.85;4.43;;;9.40;99.90;;;;;;4959490;28;20043;-86
2023/03/25 09:24:40;;;;;;;24.50;4.03;;;9.40;99.90;;;;;;4959821;28;20621;-85
2023/03/25 09:27:07;;;;;;;21.25;3.72;;;9.50;99.90;;;;;;4948535;28;20125;-85
2023/03/25 09:29:33;;;;;;;16.50;2.88;;;9.60;99.90;;;;;;4951939;28;20049;-86
2023/03/25 09:32:02;;;;;;;22.70;4.47;;;9.70;99.90;;;;;;4967483;28;20050;-87
2023/03/25 09:34:27;;;;;;;21.45;3.42;;;9.90;99.90;;;;;;4951881;28;20082;-87
2023/03/25 09:36:54;;;;;;;17.98;2.97;;;10.10;99.90;;;;;;4966821;28;20046;-86
2023/03/25 09:39:20;;;;;;;23.65;3.38;;;10.40;99.90;;;;;;4964397;28;20047;-86
2023/03/25 09:42:08;;;;;;;19.58;3.38;;;10.50;99.90;;;;;;4943643;28;20118;-87
2023/03/25 09:45:02;;;;;;;17.17;4.00;;;10.70;99.90;;;;;;4946318;28;20063;-88
2023/03/25 09:47:32;;;;;;;19.85;3.28;;;10.90;99.90;;;;;;4971081;28;20086;-87
2023/03/25 09:50:02;;;;;;;16.85;3.10;;;11.10;99.90;;;;;;4954653;28;20047;-85
2023/03/25 09:52:35;;;;;;;13.25;2.50;;;11.00;99.90;;;;;;4970847;28;20055;-87
2023/03/25 09:55:07;;;;;;;23.27;2.78;;;10.90;99.90;;;;;;4954133;28;20046;-86
2023/03/25 09:57:42;;;;;;;14.57;3.08;;;10.80;99.90;;;;;;4954926;28;20055;-87
2023/03/25 10:00:19;;;;;;;19.17;3.30;;;10.80;99.90;;;;;;4969689;28;20046;-86
2023/03/25 10:02:51;;;;;;;21.17;3.08;;;10.90;99.90;;;;;;4954620;28;20073;-86
2023/03/25 10:05:30;;;;;;;14.85;2.60;;;11.00;99.90;;;;;;4966274;28;20113;-86
2023/03/25 10:08:15;;;;;;;14.02;2.17;;;11.10;99.90;;;;;;4934921;29;20455;-86
2023/03/25 10:10:47;;;;;;;20.55;2.80;;;11.30;99.90;;;;;;4935577;29;20062;-86
2023/03/25 10:13:17;;;;;;;15.00;2.08;;;11.30;99.90;;;;;;4935534;28;20693;-86
2023/03/25 10:15:57;;;;;;;13.48;2.47;;;11.10;99.90;;;;;;4961065;28;20531;-86
2023/03/25 10:18:39;;;;;;;12.82;2.00;;;11.00;99.90;;;;;;4961544;28;20050;-86
2023/03/25 10:21:23;;;;;;;16.67;2.58;;;10.90;99.90;;;;;;4948695;28;20053;-86
2023/03/25 10:24:07;;;;;;;20.33;3.30;;;10.70;99.90;;;;;;4954768;28;20391;-86
2023/03/25 10:26:44;;;;;;;20.55;3.50;;;10.70;99.90;;;;;;4969871;28;20047;-86
2023/03/25 10:29:15;;;;;;;23.90;3.05;;;10.60;99.90;;;;;;4958999;28;20058;-86
2023/03/25 10:31:49;;;;;;;22.67;3.60;;;10.50;99.90;;;;;;4961474;28;20043;-86
2023/03/25 10:34:18;;;;;;;22.13;3.33;;;10.40;99.90;;;;;;4958834;28;20435;-87
2023/03/25 10:36:56;;;;;;;16.67;2.65;;;10.40;99.90;;;;;;4958517;28;20051;-85
2023/03/25 10:39:24;;;;;;;16.75;2.70;;;10.40;99.90;;;;;;4961826;28;20134;-86
2023/03/25 10:41:58;;;;;;;18.40;3.33;;;10.50;99.90;;;;;;4943535;28;20050;-86
2023/03/25 10:44:25;;;;;;;21.48;3.13;;;10.60;99.90;;;;;;4944660;28;20137;-86
2023/03/25 10:46:59;;;;;;;22.80;3.63;;;10.70;99.90;;;;;;4942714;28;20051;-86
2023/03/25 10:49:28;;;;;;;18.08;2.80;;;10.80;99.90;;;;;;4959568;28;20079;-86
2023/03/25 10:51:57;;;;;;;16.75;2.95;;;10.80;99.90;;;;;;4944236;28;20047;-86
2023/03/25 10:54:28;;;;;;;19.80;3.30;;;10.90;99.90;;;;;;4943252;28;20712;-86
2023/03/25 10:56:58;;;;;;;17.15;2.58;;;10.80;99.90;;;;;;4942488;28;20101;-86
2023/03/25 10:59:35;;;;;;;20.77;3.80;;;10.80;99.90;;;;;;4958450;28;20379;-87
2023/03/25 11:02:21;;;;;;;28.13;3.75;;;10.70;99.90;;;;;;4959081;28;20368;-88
2023/03/25 11:04:51;;;;;;;25.17;3.70;;;10.50;99.90;;;;;;4937016;28;20046;-87
2023/03/25 11:07:22;;;;;;;18.80;3.25;;;10.40;99.90;;;;;;4954057;28;20085;-86
2023/03/25 11:09:50;;;;;;;19.90;3.00;;;10.40;99.90;;;;;;4954149;28;20043;-87
2023/03/25 11:12:19;;;;;;;29.58;3.58;;;10.50;99.90;;;;;;4949868;28;20118;-87
2023/03/25 11:14:54;;;;;;;20.92;3.50;;;10.70;99.90;;;;;;4965427;28;20045;-86
2023/03/25 11:17:24;;;;;;;23.33;3.08;;;10.90;99.90;;;;;;4966417;28;20133;-85
2023/03/25 11:19:51;;;;;;;29.08;4.05;;;11.00;99.90;;;;;;4966599;28;20046;-85
2023/03/25 11:22:22;;;;;;;16.13;2.92;;;11.00;99.90;;;;;;4950951;28;20043;-86
2023/03/25 11:24:53;;;;;;;21.67;3.63;;;11.00;99.90;;;;;;4965982;28;20039;-86
2023/03/25 11:27:23;;;;;;;17.38;3.53;;;11.00;99.90;;;;;;4951392;28;20105;-85
2023/03/25 11:30:01;;;;;;;20.77;3.33;;;11.00;99.90;;;;;;4968355;28;20061;-85
2023/03/25 11:32:33;;;;;;;20.58;3.50;;;11.00;99.90;;;;;;4952570;28;20047;-86
2023/03/25 11:35:06;;;;;;;19.77;4.05;;;11.00;99.90;;;;;;4969071;28;20185;-86
2023/03/25 11:37:42;;;;;;;14.02;2.33;;;11.10;99.90;;;;;;4953639;28;20058;-86
2023/03/25 11:40:15;;;;;;;17.75;3.28;;;11.10;99.90;;;;;;4968863;28;20046;-86
2023/03/25 11:42:42;;;;;;;;;;;11.10;99.90;;;;;;4969304;28;20074;-86
2023/03/25 11:45:20;;;;;;;12.95;2.65;;;11.10;99.90;;;;;;4953532;28;19929;-86
2023/03/25 11:47:46;;;;;;;15.65;2.70;;;11.00;99.90;;;;;;4952627;28;20078;-86
2023/03/25 11:50:24;;;;;;;18.48;2.75;;;11.00;99.90;;;;;;4952613;28;20097;-86
2023/03/25 11:52:54;;;;;;;15.45;2.70;;;11.00;99.90;;;;;;4968557;28;20046;-86
2023/03/25 11:55:26;;;;;;;18.55;3.13;;;11.10;99.90;;;;;;4951621;28;20046;-87
2023/03/25 11:57:55;;;;;;;17.27;2.67;;;11.10;99.90;;;;;;4952630;28;20108;-86
2023/03/25 12:00:30;;;;;;;12.35;2.13;;;11.20;99.90;;;;;;4951583;28;20047;-86
2023/03/25 12:03:01;;;;;;;14.98;2.65;;;11.30;99.90;;;;;;4952635;28;20390;-87
2023/03/25 12:05:27;;;;;;;17.20;2.72;;;11.30;99.90;;;;;;4962917;28;20116;-86
2023/03/25 12:08:03;;;;;;;16.38;2.72;;;11.30;99.90;;;;;;4935343;28;20054;-86
2023/03/25 12:10:31;;;;;;;16.85;2.72;;;11.40;99.90;;;;;;4952245;28;20090;-86
2023/03/25 12:13:25;;;;;;;13.55;2.42;;;11.40;99.90;;;;;;4952257;28;20046;-87
2023/03/25 12:16:06;;;;;;;13.75;2.67;;;11.40;99.90;;;;;;4935550;28;20490;-86
2023/03/25 12:18:46;;;;;;;15.13;2.67;;;11.60;99.90;;;;;;4952092;28;20043;-86
2023/03/25 12:21:28;;;;;;;12.65;2.97;;;11.70;99.90;;;;;;4934838;28;20498;-86
2023/03/25 12:24:06;;;;;;;14.70;2.85;;;11.90;99.90;;;;;;4952149;28;20122;-86
2023/03/25 12:26:46;;;;;;;19.63;2.33;;;12.10;99.90;;;;;;4951928;28;20913;-86
2023/03/25 12:29:24;;;;;;;17.20;2.80;;;12.00;99.90;;;;;;4951519;28;20102;-85
2023/03/25 12:31:53;;;;;;;16.40;2.08;;;12.10;99.90;;;;;;4951039;28;20543;-85
2023/03/25 12:34:48;;;;;;;13.60;2.78;;;12.10;99.90;;;;;;4952166;28;20157;-85
2023/03/25 12:37:29;;;;;;;15.95;2.47;;;12.00;99.90;;;;;;4934795;28;20058;-86
2023/03/25 12:40:09;;;;;;;11.98;2.13;;;12.00;99.90;;;;;;4952201;28;20049;-84
2023/03/25 12:43:00;;;;;;;12.75;2.63;;;11.90;99.90;;;;;;4950494;28;20414;-85
2023/03/25 12:45:50;;;;;;;13.00;2.17;;;12.00;99.90;;;;;;4951778;28;20078;-85
2023/03/25 12:48:32;;;;;;;16.42;2.28;;;12.20;99.90;;;;;;4951928;28;20607;-85
2023/03/25 12:51:12;;;;;;;12.38;2.70;;;12.20;99.90;;;;;;4966442;28;20105;-85
2023/03/25 12:53:45;;;;;;;10.43;2.25;;;12.10;99.90;;;;;;4951592;28;20137;-85
2023/03/25 12:56:20;;;;;;;;;;;11.90;99.90;;;;;;4950678;28;20046;-85
2023/03/25 12:59:03;;;;;;;16.83;3.10;;;11.70;99.90;;;;;;4935517;28;19929;-85
2023/03/25 13:01:49;;;;;;;16.83;2.53;;;11.50;99.90;;;;;;4950976;28;20049;-85
2023/03/25 13:04:33;;;;;;;13.48;2.45;;;11.30;99.90;;;;;;4934253;28;20077;-82
2023/03/25 13:07:05;;;;;;;14.30;2.35;;;11.20;99.90;;;;;;4950426;28;20082;-83